Time;durP1;ratioP1;P1;durP2;ratioP2;P2;SDS_P1;SDS_P2;PMS_P1;PMS_P2;Temp;Humidity;BMP_temperature;BMP_pressure;BME280_temperature;BME280_humidity;BME280_pressure;Samples;Min_cycle;Max_cycle;Signal;HPM_P1;HPM_P2
2022/12/12 00:00:09;;;;;;;;;;;21.00;99.90;;;;;;5046114;28;19913;-69
2022/12/12 00:02:37;;;;;;;;;;;20.90;99.90;;;;;;5040846;28;19919;-71
2022/12/12 00:05:05;;;;;;;;;;;21.00;99.90;;;;;;5055553;28;20429;-71
2022/12/12 00:07:31;;;;;;;;;;;20.90;99.90;;;;;;5049149;28;20007;-70
2022/12/12 00:09:58;;;;;;;;;;;21.00;99.90;;;;;;5057027;28;20003;-71
2022/12/12 00:12:25;;;;;;;;;;;21.10;99.90;;;;;;5049542;28;19917;-70
2022/12/12 00:14:51;;;;;;;;;;;21.30;99.90;;;;;;5054154;28;19915;-68
2022/12/12 00:17:18;;;;;;;;;;;21.50;99.90;;;;;;5052606;28;19916;-70
2022/12/12 00:19:45;;;;;;;;;;;21.50;99.90;;;;;;5047856;28;19932;-69
2022/12/12 00:22:11;;;;;;;;;;;21.80;99.90;;;;;;5036949;28;19912;-70
2022/12/12 00:24:38;;;;;;;;;;;21.90;99.90;;;;;;5032692;28;19925;-69
2022/12/12 00:27:04;;;;;;;;;;;22.00;99.90;;;;;;5056459;28;19913;-68
2022/12/12 00:29:31;;;;;;;;;;;22.10;99.90;;;;;;5054144;28;19916;-70
2022/12/12 00:31:58;;;;;;;;;;;22.20;99.90;;;;;;5055553;28;19908;-67
2022/12/12 00:34:24;;;;;;;;;;;22.20;99.90;;;;;;5065985;28;19913;-66
2022/12/12 00:36:51;;;;;;;;;;;22.40;99.90;;;;;;5037816;28;19992;-67
2022/12/12 00:39:18;;;;;;;;;;;22.30;99.90;;;;;;5053433;28;19912;-70
2022/12/12 00:41:45;;;;;;;;;;;22.20;99.90;;;;;;5051279;28;19919;-68
2022/12/12 00:44:12;;;;;;;;;;;22.20;99.90;;;;;;5053530;28;20446;-68
2022/12/12 00:46:38;;;;;;;;;;;22.20;99.90;;;;;;5049929;28;19920;-69
2022/12/12 00:49:05;;;;;;;;;;;22.20;99.90;;;;;;5043340;28;20196;-69
2022/12/12 00:51:32;;;;;;;;;;;22.10;99.90;;;;;;5048420;28;19912;-72
2022/12/12 00:53:59;;;;;;;;;;;22.00;99.90;;;;;;5053755;28;19952;-69
2022/12/12 00:56:26;;;;;;;;;;;21.90;99.90;;;;;;5053626;28;19995;-70
2022/12/12 00:58:53;;;;;;;;;;;21.90;99.90;;;;;;5049424;28;19924;-72
2022/12/12 01:01:21;;;;;;;;;;;21.80;99.90;;;;;;5048858;28;19913;-69
2022/12/12 01:03:48;;;;;;;;;;;21.80;99.90;;;;;;5039305;28;20081;-70
2022/12/12 01:06:15;;;;;;;;;;;21.80;99.90;;;;;;5050359;28;20651;-68
2022/12/12 01:08:41;;;;;;;;;;;21.80;99.90;;;;;;5049529;28;20717;-69
2022/12/12 01:11:09;;;;;;;;;;;21.90;99.90;;;;;;5045885;28;20319;-69
2022/12/12 01:13:36;;;;;;;;;;;21.90;99.90;;;;;;5043985;28;20008;-73
2022/12/12 01:16:03;;;;;;;;;;;22.00;99.90;;;;;;5051603;28;20377;-71
2022/12/12 01:18:29;;;;;;;;;;;22.10;99.90;;;;;;5053616;28;19916;-70
2022/12/12 01:20:56;;;;;;;;;;;22.10;99.90;;;;;;5051010;28;19999;-71
2022/12/12 01:23:23;;;;;;;;;;;22.10;99.90;;;;;;5047739;28;20022;-73
2022/12/12 01:25:50;;;;;;;;;;;22.20;99.90;;;;;;5047980;28;20345;-71
2022/12/12 01:28:16;;;;;;;;;;;22.40;99.90;;;;;;5036025;28;20218;-71
2022/12/12 01:30:43;;;;;;;;;;;22.80;99.90;;;;;;5039442;28;20368;-71
2022/12/12 01:33:10;;;;;;;;;;;22.80;99.90;;;;;;5046370;28;19916;-72
2022/12/12 01:35:36;;;;;;;;;;;23.20;99.90;;;;;;5042554;28;19955;-71
2022/12/12 01:38:03;;;;;;;;;;;23.50;99.90;;;;;;5050562;28;19912;-72
2022/12/12 01:40:30;;;;;;;;;;;23.40;99.90;;;;;;5054116;28;20277;-72
2022/12/12 01:42:58;;;;;;;;;;;23.40;99.90;;;;;;5044119;28;20288;-70
2022/12/12 01:45:43;;;;;;;;;;;23.30;99.90;;;;;;5050041;28;19921;-71
2022/12/12 01:48:09;;;;;;;;;;;23.30;99.90;;;;;;5034002;28;20392;-71
2022/12/12 01:50:36;;;;;;;;;;;23.30;99.90;;;;;;5037231;28;19917;-71
2022/12/12 01:53:02;;;;;;;;;;;23.40;99.90;;;;;;5051981;28;20089;-72
2022/12/12 01:55:29;;;;;;;;;;;23.30;99.90;;;;;;5041678;28;19912;-71
2022/12/12 01:57:56;;;;;;;;;;;23.30;99.90;;;;;;5033034;28;19917;-72
2022/12/12 02:00:22;;;;;;;;;;;23.50;99.90;;;;;;5048112;28;20266;-71
2022/12/12 02:02:51;;;;;;;;;;;23.90;99.90;;;;;;5039802;28;20063;-72
2022/12/12 02:05:20;;;;;;;;;;;24.00;99.90;;;;;;5040810;28;19931;-72
2022/12/12 02:07:47;;;;;;;;;;;24.00;99.90;;;;;;5048508;28;19935;-71
2022/12/12 02:10:13;;;;;;;;;;;24.00;99.90;;;;;;5055033;28;20021;-72
2022/12/12 02:12:40;;;;;;;;;;;24.00;99.90;;;;;;5044322;28;19927;-71
2022/12/12 02:15:07;;;;;;;;;;;24.10;99.90;;;;;;5043776;28;19912;-71
2022/12/12 02:17:34;;;;;;;;;;;24.10;99.90;;;;;;5035844;28;19912;-71
2022/12/12 02:20:19;;;;;;;;;;;24.30;99.90;;;;;;5042449;28;20380;-70
2022/12/12 02:22:51;;;;;;;;;;;24.40;99.90;;;;;;5054291;28;19993;-72
2022/12/12 02:25:36;;;;;;;;;;;24.80;99.90;;;;;;5054365;28;19936;-72
2022/12/12 02:28:20;;;;;;;;;;;25.40;99.90;;;;;;5052685;28;19913;-72
2022/12/12 02:30:53;;;;;;;;;;;25.70;99.90;;;;;;5053535;28;20380;-73
2022/12/12 02:33:26;;;;;;;;;;;25.80;99.90;;;;;;5044341;28;20012;-72
2022/12/12 02:35:56;;;;;;;;;;;26.10;99.90;;;;;;5052072;28;19920;-71
2022/12/12 02:38:48;;;;;;;;;;;26.30;99.90;;;;;;5056328;28;19908;-71
2022/12/12 02:41:15;;;;;;;;;;;26.40;99.90;;;;;;5052993;28;20003;-71
2022/12/12 02:43:51;;;;;;;;;;;26.70;99.90;;;;;;5057108;28;19936;-72
2022/12/12 02:46:23;;;;;;;;;;;26.60;99.60;;;;;;5045167;28;19945;-71
2022/12/12 02:49:04;;;;;;;;;;;26.80;99.50;;;;;;5046194;28;19909;-74
2022/12/12 02:51:32;;;;;;;;;;;26.80;98.30;;;;;;5057308;28;19954;-71
2022/12/12 02:53:59;;;;;;;;;;;26.80;98.10;;;;;;5056171;28;20281;-74
2022/12/12 02:56:44;;;;;;;;;;;26.70;97.40;;;;;;5059857;28;19912;-73
2022/12/12 02:59:13;;;;;;;;;;;26.80;97.20;;;;;;5055087;28;19912;-70
2022/12/12 03:01:59;;;;;;;;;;;26.40;96.90;;;;;;5059238;28;19917;-70
2022/12/12 03:07:47;;;;;;;;;;;25.80;98.70;;;;;;5040398;28;19970;-71
2022/12/12 03:10:16;;;;;;;;;;;25.80;98.50;;;;;;5046885;28;19916;-74
2022/12/12 03:12:57;;;;;;;;;;;26.00;97.70;;;;;;5049186;28;19942;-72
2022/12/12 03:15:27;;;;;;;;;;;26.40;96.90;;;;;;5048690;28;20389;-73
2022/12/12 03:18:16;;;;;;;;;;;26.60;96.00;;;;;;5053511;28;20418;-73
2022/12/12 03:21:09;;;;;;;;;;;26.90;95.50;;;;;;5055560;28;19962;-70
2022/12/12 03:23:38;;;;;;;;;;;27.20;90.90;;;;;;5052961;28;20345;-71
2022/12/12 03:26:08;;;;;;;;;;;28.10;84.20;;;;;;5057081;28;19924;-71
2022/12/12 03:28:42;;;;;;;;;;;29.40;79.20;;;;;;5053333;28;19967;-72
2022/12/12 03:31:09;;;;;;;;;;;30.60;74.20;;;;;;5058059;28;20353;-70
2022/12/12 03:33:43;;;;;;;;;;;31.60;70.10;;;;;;5053919;28;19908;-71
2022/12/12 03:36:15;;;;;;;;;;;32.40;68.50;;;;;;5057313;28;19917;-69
2022/12/12 03:38:46;;;;;;;;;;;33.70;65.60;;;;;;5034628;28;19913;-70
2022/12/12 03:41:18;;;;;;;;;;;34.30;62.70;;;;;;5053893;28;19955;-71
2022/12/12 03:43:49;;;;;;;;;;;34.70;59.90;;;;;;5054691;28;19923;-68
2022/12/12 03:46:16;;;;;;;;;;;35.10;61.20;;;;;;5056327;28;19912;-71
2022/12/12 03:48:45;;;;;;;;;;;34.80;60.10;;;;;;5054102;28;20531;-68
2022/12/12 03:51:17;;;;;;;;;;;35.10;57.70;;;;;;5056763;28;19908;-69
2022/12/12 03:53:49;;;;;;;;;;;35.50;58.00;;;;;;5054115;28;19909;-69
2022/12/12 03:56:27;;;;;;;;;;;35.20;57.00;;;;;;5057181;28;19938;-70
2022/12/12 03:59:13;;;;;;;;;;;35.00;57.80;;;;;;5054231;28;19908;-70
2022/12/12 04:01:46;;;;;;;;;;;35.10;57.50;;;;;;5051942;28;20612;-68
2022/12/12 04:04:13;;;;;;;;;;;34.30;58.90;;;;;;5051658;28;19924;-69
2022/12/12 04:06:47;;;;;;;;;;;33.20;59.00;;;;;;5045202;28;19963;-71
2022/12/12 04:14:45;;;;;;;;;;;28.90;66.60;;;;;;5034369;28;20152;-69
2022/12/12 04:17:14;;;;;;;;;;;28.30;67.50;;;;;;5056843;28;19913;-71
2022/12/12 04:23:14;;;;;;;;;;;28.20;67.70;;;;;;5023592;28;19963;-70
2022/12/12 04:28:57;;;;;;;;;;;28.60;66.30;;;;;;5052712;28;19915;-70
2022/12/12 04:31:25;;;;;;;;;;;28.70;65.00;;;;;;5056346;28;20046;-70
2022/12/12 04:33:55;;;;;;;;;;;29.30;66.00;;;;;;5037777;28;19912;-71
2022/12/12 04:36:23;;;;;;;;;;;29.50;66.20;;;;;;5052700;28;19912;-70
2022/12/12 04:38:51;;;;;;;;;;;29.40;64.80;;;;;;5054955;28;20384;-75
2022/12/12 04:41:19;;;;;;;;;;;29.30;65.30;;;;;;5053236;28;19913;-72
2022/12/12 04:43:47;;;;;;;;;;;30.00;65.30;;;;;;5052641;28;19920;-71
2022/12/12 04:46:16;;;;;;;;;;;30.90;62.70;;;;;;5043991;28;19921;-71
2022/12/12 04:48:43;;;;;;;;;;;31.90;59.90;;;;;;5042625;28;20007;-70
2022/12/12 04:51:11;;;;;;;;;;;32.30;59.50;;;;;;5043285;28;19916;-70
2022/12/12 04:53:42;;;;;;;;;;;32.80;59.60;;;;;;5043836;28;20008;-71
2022/12/12 04:56:10;;;;;;;;;;;33.70;58.70;;;;;;5046346;28;19909;-72
2022/12/12 04:58:37;;;;;;;;;;;34.20;56.20;;;;;;5052964;28;21648;-71
2022/12/12 05:01:26;;;;;;;;;;;33.80;55.40;;;;;;5051226;28;19952;-71
2022/12/12 05:03:57;;;;;;;;;;;33.50;56.30;;;;;;5054278;28;20025;-74
2022/12/12 05:06:37;;;;;;;;;;;34.10;56.00;;;;;;5053462;28;20597;-73
2022/12/12 05:09:03;;;;;;;;;;;34.70;54.70;;;;;;5059326;28;20403;-72
2022/12/12 05:11:30;;;;;;;;;;;34.20;55.70;;;;;;5052789;28;19912;-72
2022/12/12 05:13:57;;;;;;;;;;;33.20;56.30;;;;;;5041495;28;21295;-70
2022/12/12 05:16:23;;;;;;;;;;;32.00;57.70;;;;;;5041357;28;19995;-69
2022/12/12 05:18:50;;;;;;;;;;;30.60;59.30;;;;;;5042002;28;19927;-72
2022/12/12 05:21:17;;;;;;;;;;;29.70;61.50;;;;;;5045440;28;20436;-72
2022/12/12 05:23:44;;;;;;;;;;;29.10;62.50;;;;;;5053230;28;19913;-71
2022/12/12 05:26:36;;;;;;;;;;;28.70;63.50;;;;;;5053125;28;20362;-70
2022/12/12 05:29:04;;;;;;;;;;;28.40;64.60;;;;;;5049424;28;20293;-70
2022/12/12 05:31:31;;;;;;;;;;;28.50;65.10;;;;;;5052424;28;19915;-70
2022/12/12 05:33:58;;;;;;;;;;;28.80;63.60;;;;;;5050539;28;19913;-70
2022/12/12 05:36:24;;;;;;;;;;;29.30;63.90;;;;;;5042102;28;19939;-68
2022/12/12 05:38:51;;;;;;;;;;;30.20;61.80;;;;;;5051211;28;19913;-70
2022/12/12 05:41:18;;;;;;;;;;;31.00;58.90;;;;;;5036389;28;19917;-73
2022/12/12 05:43:45;;;;;;;;;;;31.30;57.40;;;;;;5033645;28;19920;-73
2022/12/12 05:46:11;;;;;;;;;;;31.60;55.40;;;;;;5043694;28;19962;-70
2022/12/12 05:48:38;;;;;;;;;;;31.40;55.60;;;;;;5052735;28;19923;-70
2022/12/12 05:51:05;;;;;;;;;;;30.50;56.90;;;;;;5046296;28;19920;-69
2022/12/12 05:53:31;;;;;;;;;;;30.00;58.60;;;;;;5049252;28;20054;-71
2022/12/12 05:55:58;;;;;;;;;;;29.30;58.00;;;;;;5050041;28;20397;-71
2022/12/12 05:58:25;;;;;;;;;;;28.50;58.80;;;;;;5052992;28;19909;-71
2022/12/12 06:00:52;;;;;;;;;;;27.90;59.40;;;;;;5054820;28;20376;-70
2022/12/12 06:03:19;;;;;;;;;;;27.90;60.80;;;;;;5051569;28;19939;-70
2022/12/12 06:05:45;;;;;;;;;;;27.90;58.60;;;;;;5043340;28;19917;-69
2022/12/12 06:08:12;;;;;;;;;;;27.70;57.20;;;;;;5050473;28;20714;-71
2022/12/12 06:10:39;;;;;;;;;;;27.90;58.80;;;;;;5054366;28;19915;-69
2022/12/12 06:13:05;;;;;;;;;;;28.20;58.60;;;;;;5051954;28;20135;-70
2022/12/12 06:15:32;;;;;;;;;;;28.30;58.80;;;;;;5041768;28;19912;-73
2022/12/12 06:17:59;;;;;;;;;;;28.40;57.90;;;;;;5051149;28;20287;-71
2022/12/12 06:20:25;;;;;;;;;;;28.10;58.60;;;;;;5054802;28;20296;-69
2022/12/12 06:22:52;;;;;;;;;;;27.90;58.60;;;;;;5052691;28;20046;-71
2022/12/12 06:25:19;;;;;;;;;;;27.50;57.90;;;;;;5049685;28;20993;-68
2022/12/12 06:27:46;;;;;;;;;;;27.20;59.10;;;;;;5034107;28;19913;-69
2022/12/12 06:30:12;;;;;;;;;;;27.10;59.20;;;;;;5053432;28;19935;-70
2022/12/12 06:32:39;;;;;;;;;;;26.90;57.50;;;;;;5045657;28;19912;-68
2022/12/12 06:35:06;;;;;;;;;;;27.00;56.30;;;;;;5037254;28;19913;-69
2022/12/12 06:37:32;;;;;;;;;;;26.80;57.00;;;;;;5056142;28;20763;-71
2022/12/12 06:39:59;;;;;;;;;;;26.70;55.90;;;;;;5056152;28;19915;-71
2022/12/12 06:42:26;;;;;;;;;;;26.90;56.70;;;;;;5057291;28;19920;-69
2022/12/12 06:44:52;;;;;;;;;;;27.20;56.30;;;;;;5055738;28;19924;-69
2022/12/12 06:47:19;;;;;;;;;;;27.40;53.30;;;;;;5056477;28;19908;-69
2022/12/12 06:49:46;;;;;;;;;;;27.50;54.40;;;;;;5056615;28;19913;-74
2022/12/12 06:52:12;;;;;;;;;;;27.40;54.30;;;;;;5054519;28;19939;-71
2022/12/12 06:54:39;;;;;;;;;;;27.40;53.70;;;;;;5056868;28;20675;-71
2022/12/12 06:57:06;;;;;;;;;;;27.40;53.70;;;;;;5055730;28;20262;-72
2022/12/12 06:59:32;;;;;;;;;;;27.20;53.70;;;;;;5055768;28;19908;-71
2022/12/12 07:01:59;;;;;;;;;;;26.90;54.40;;;;;;5049654;28;19912;-72
2022/12/12 07:04:26;;;;;;;;;;;26.70;55.20;;;;;;5057194;28;20010;-70
2022/12/12 07:06:53;;;;;;;;;;;26.50;54.10;;;;;;5056229;28;19975;-72
2022/12/12 07:09:19;;;;;;;;;;;26.50;53.50;;;;;;5056567;28;19908;-68
2022/12/12 07:11:46;;;;;;;;;;;26.50;53.50;;;;;;5057056;28;19935;-69
2022/12/12 07:14:13;;;;;;;;;;;26.60;54.10;;;;;;5052741;28;20562;-72
2022/12/12 07:16:39;;;;;;;;;;;26.70;53.90;;;;;;5056612;28;19967;-72
2022/12/12 07:19:06;;;;;;;;;;;26.60;50.50;;;;;;5053988;28;19942;-72
2022/12/12 07:21:33;;;;;;;;;;;26.40;50.60;;;;;;5038080;28;19913;-69
2022/12/12 07:23:59;;;;;;;;;;;26.30;50.50;;;;;;5035824;28;20285;-70
2022/12/12 07:26:26;;;;;;;;;;;26.30;50.80;;;;;;5034041;28;19920;-72
2022/12/12 07:28:53;;;;;;;;;;;26.20;50.90;;;;;;5049568;28;19966;-72
2022/12/12 07:31:21;;;;;;;;;;;26.10;50.10;;;;;;5056034;28;19912;-72
2022/12/12 07:33:47;;;;;;;;;;;26.10;49.60;;;;;;5057389;28;19913;-70
2022/12/12 07:36:15;;;;;;;;;;;26.00;50.00;;;;;;5056707;28;19909;-70
2022/12/12 07:38:41;;;;;;;;;;;25.80;48.90;;;;;;5050980;28;19920;-70
2022/12/12 07:41:10;;;;;;;;;;;25.70;49.70;;;;;;5037133;28;19916;-71
2022/12/12 07:43:37;;;;;;;;;;;25.60;49.60;;;;;;5040206;28;19920;-72
2022/12/12 07:46:07;;;;;;;;;;;25.50;49.50;;;;;;5042995;28;20003;-70
2022/12/12 07:48:34;;;;;;;;;;;25.40;49.50;;;;;;5045098;28;19913;-71
2022/12/12 07:51:01;;;;;;;;;;;25.30;49.00;;;;;;5046260;28;19916;-73
2022/12/12 07:53:28;;;;;;;;;;;25.20;49.10;;;;;;5045674;28;20007;-70
2022/12/12 07:55:55;;;;;;;;;;;25.10;49.00;;;;;;5047024;28;19925;-70
2022/12/12 07:58:22;;;;;;;;;;;24.90;49.00;;;;;;5036583;28;19912;-70
2022/12/12 08:00:49;;;;;;;;;;;24.90;49.80;;;;;;5034044;28;19915;-70
2022/12/12 08:03:16;;;;;;;;;;;24.80;50.00;;;;;;5035679;28;19979;-71
2022/12/12 08:05:43;;;;;;;;;;;24.80;49.70;;;;;;5056163;28;19959;-72
2022/12/12 08:08:10;;;;;;;;;;;24.70;49.60;;;;;;5057953;28;19912;-72
2022/12/12 08:10:39;;;;;;;;;;;24.60;50.30;;;;;;5051841;28;19909;-70
2022/12/12 08:13:06;;;;;;;;;;;24.40;50.80;;;;;;5051689;28;20017;-71
2022/12/12 08:15:33;;;;;;;;;;;24.20;51.20;;;;;;5048040;28;19912;-71
2022/12/12 08:18:00;;;;;;;;;;;24.10;51.30;;;;;;5044459;28;19909;-70
2022/12/12 08:20:27;;;;;;;;;;;24.00;50.10;;;;;;5047598;28;19912;-71
2022/12/12 08:22:54;;;;;;;;;;;23.80;50.30;;;;;;5048028;28;19917;-71
2022/12/12 08:25:20;;;;;;;;;;;23.80;50.70;;;;;;5042361;28;19964;-73
2022/12/12 08:27:47;;;;;;;;;;;23.80;51.00;;;;;;5035462;28;19935;-73
2022/12/12 08:30:15;;;;;;;;;;;23.70;51.00;;;;;;5036337;28;19912;-73
2022/12/12 08:32:41;;;;;;;;;;;23.70;50.60;;;;;;5034845;28;19909;-71
2022/12/12 08:35:08;;;;;;;;;;;23.60;50.70;;;;;;5046090;28;19921;-73
2022/12/12 08:37:35;;;;;;;;;;;23.50;51.20;;;;;;5050501;28;19922;-69
2022/12/12 08:40:02;;;;;;;;;;;23.40;51.00;;;;;;5074215;28;20372;-72
2022/12/12 08:42:29;;;;;;;;;;;23.40;51.30;;;;;;5074742;28;19969;-71
2022/12/12 08:44:55;;;;;;;;;;;23.30;52.20;;;;;;5033769;28;19978;-72
2022/12/12 08:47:22;;;;;;;;;;;23.30;52.30;;;;;;5031088;28;20018;-72
2022/12/12 08:49:49;;;;;;;;;;;23.20;51.40;;;;;;5037302;28;19913;-71
2022/12/12 08:52:15;;;;;;;;;;;23.20;51.80;;;;;;5075430;28;19972;-69
2022/12/12 08:54:42;;;;;;;;;;;23.10;51.30;;;;;;5067747;28;20057;-71
2022/12/12 08:57:09;;;;;;;;;;;23.10;52.20;;;;;;5043232;28;20610;-70
2022/12/12 08:59:35;;;;;;;;;;;23.00;52.30;;;;;;5045517;28;19917;-71
2022/12/12 09:02:02;;;;;;;;;;;23.00;52.30;;;;;;5040677;28;19940;-69
2022/12/12 09:04:29;;;;;;;;;;;22.90;52.10;;;;;;5043107;28;20019;-70
2022/12/12 09:06:55;;;;;;;;;;;22.80;52.00;;;;;;5042255;28;19977;-71
2022/12/12 09:09:22;;;;;;;;;;;22.70;51.70;;;;;;5045364;28;19988;-70
2022/12/12 09:11:49;;;;;;;;;;;22.70;51.70;;;;;;5041742;28;20013;-71
2022/12/12 09:14:15;;;;;;;;;;;22.60;52.00;;;;;;5043683;28;19919;-70
2022/12/12 09:16:42;;;;;;;;;;;22.60;51.90;;;;;;5040711;28;19909;-71
2022/12/12 09:19:08;;;;;;;;;;;22.50;52.00;;;;;;5043150;28;20395;-69
2022/12/12 09:21:35;;;;;;;;;;;22.50;52.60;;;;;;5043298;28;19909;-70
2022/12/12 09:24:02;;;;;;;;;;;22.40;52.50;;;;;;5041235;28;19975;-68
2022/12/12 09:26:29;;;;;;;;;;;22.40;53.20;;;;;;5045158;28;19924;-71
2022/12/12 09:28:55;;;;;;;;;;;22.40;53.00;;;;;;5037474;28;19940;-71
2022/12/12 09:31:22;;;;;;;;;;;22.30;53.60;;;;;;5033135;28;19909;-71
2022/12/12 09:33:49;;;;;;;;;;;22.30;54.10;;;;;;5047288;28;19912;-70
2022/12/12 09:36:16;;;;;;;;;;;22.10;54.70;;;;;;5054560;28;19948;-69
2022/12/12 09:38:42;;;;;;;;;;;22.10;55.40;;;;;;5049514;28;19912;-70
2022/12/12 09:41:11;;;;;;;;;;;22.00;55.40;;;;;;5053941;28;20304;-71
2022/12/12 09:43:43;;;;;;;;;;;22.00;55.90;;;;;;5035032;28;19913;-69
2022/12/12 09:46:30;;;;;;;;;;;21.90;56.10;;;;;;5035281;28;20008;-70
2022/12/12 09:49:10;;;;;;;;;;;21.90;55.90;;;;;;5033977;28;19909;-69
2022/12/12 09:51:37;;;;;;;;;;;21.90;56.50;;;;;;5032401;28;19913;-68
2022/12/12 09:54:03;;;;;;;;;;;21.80;56.50;;;;;;5034740;28;20004;-69
2022/12/12 09:56:37;;;;;;;;;;;21.80;56.60;;;;;;5033643;28;19909;-71
2022/12/12 09:59:11;;;;;;;;;;;21.80;56.40;;;;;;5046394;28;19912;-72
2022/12/12 10:01:38;;;;;;;;;;;21.70;57.20;;;;;;5044452;28;19928;-70
2022/12/12 10:04:10;;;;;;;;;;;21.60;57.20;;;;;;5038076;28;19916;-69
2022/12/12 10:06:56;;;;;;;;;;;21.60;57.30;;;;;;5048535;28;19916;-69
2022/12/12 10:09:25;;;;;;;;;;;21.50;56.30;;;;;;5056704;28;20007;-70
2022/12/12 10:11:53;;;;;;;;;;;21.40;57.10;;;;;;5054265;28;20553;-69
2022/12/12 10:14:27;;;;;;;;;;;21.40;57.20;;;;;;5051126;28;19913;-69
2022/12/12 10:16:55;;;;;;;;;;;21.30;58.30;;;;;;5072275;28;19923;-68
2022/12/12 10:19:24;;;;;;;;;;;21.30;58.00;;;;;;5058302;28;20576;-70
2022/12/12 10:21:52;;;;;;;;;;;21.20;57.50;;;;;;5047573;28;19912;-72
2022/12/12 10:24:27;;;;;;;;;;;21.30;57.90;;;;;;5057494;28;19943;-72
2022/12/12 10:26:54;;;;;;;;;;;21.20;58.20;;;;;;5055594;28;19912;-69
2022/12/12 10:29:23;;;;;;;;;;;21.20;58.70;;;;;;5052739;28;20350;-70
2022/12/12 10:31:50;;;;;;;;;;;21.10;57.80;;;;;;5048393;28;19916;-69
2022/12/12 10:34:30;;;;;;;;;;;21.10;57.20;;;;;;5038555;28;19955;-69
2022/12/12 10:37:02;;;;;;;;;;;21.10;56.90;;;;;;5046836;28;19913;-68
2022/12/12 10:39:32;;;;;;;;;;;21.10;57.50;;;;;;5056928;28;19913;-69
2022/12/12 10:42:05;;;;;;;;;;;21.00;56.40;;;;;;5056169;28;20380;-71
2022/12/12 10:44:51;;;;;;;;;;;21.00;55.60;;;;;;5050947;28;19924;-70
2022/12/12 10:47:18;;;;;;;;;;;21.10;55.30;;;;;;5038861;28;19908;-70
2022/12/12 10:49:45;;;;;;;;;;;21.10;55.50;;;;;;5034555;28;19921;-72
2022/12/12 10:52:16;;;;;;;;;;;21.00;55.00;;;;;;5037922;28;20004;-70
2022/12/12 10:54:57;;;;;;;;;;;21.00;55.30;;;;;;5035431;28;19955;-71
2022/12/12 10:57:25;;;;;;;;;;;20.90;55.50;;;;;;5038526;28;19913;-70
2022/12/12 10:59:56;;;;;;;;;;;20.90;56.00;;;;;;5035569;28;19953;-70
2022/12/12 11:02:26;;;;;;;;;;;20.80;55.60;;;;;;5038437;28;20007;-70
2022/12/12 11:05:01;;;;;;;;;;;20.80;55.70;;;;;;5035806;28;19928;-68
2022/12/12 11:07:28;;;;;;;;;;;20.80;56.10;;;;;;5037527;28;20025;-71
2022/12/12 11:09:56;;;;;;;;;;;20.80;56.30;;;;;;5035688;28;19963;-68
2022/12/12 11:12:32;;;;;;;;;;;20.70;56.30;;;;;;5037626;28;20011;-69
2022/12/12 11:15:03;;;;;;;;;;;20.70;56.70;;;;;;5036379;28;20480;-70
2022/12/12 11:17:31;;;;;;;;;;;20.60;56.90;;;;;;5037940;28;20007;-70
2022/12/12 11:19:58;;;;;;;;;;;20.50;57.60;;;;;;5035866;28;19935;-70
2022/12/12 11:22:25;;;;;;;;;;;20.40;58.40;;;;;;5037623;28;19913;-68
2022/12/12 11:24:52;;;;;;;;;;;20.30;58.50;;;;;;5034597;28;19960;-69
2022/12/12 11:27:21;;;;;;;;;;;20.30;58.90;;;;;;5039433;28;20002;-70
2022/12/12 11:29:50;;;;;;;;;;;20.30;59.10;;;;;;5035162;28;19919;-71
2022/12/12 11:32:19;;;;;;;;;;;20.30;59.10;;;;;;5052705;28;19919;-69
2022/12/12 11:34:53;;;;;;;;;;;20.20;59.50;;;;;;5055638;28;20007;-70
2022/12/12 11:37:23;;;;;;;;;;;20.20;59.30;;;;;;5057156;28;20373;-68
2022/12/12 11:39:50;;;;;;;;;;;20.10;59.00;;;;;;5055176;28;19921;-70
2022/12/12 11:42:24;;;;;;;;;;;20.10;58.90;;;;;;5057496;28;19916;-69
2022/12/12 11:44:59;;;;;;;;;;;20.10;58.70;;;;;;5054309;28;20015;-69
2022/12/12 11:47:28;;;;;;;;;;;20.10;59.20;;;;;;5057536;28;19919;-69
2022/12/12 11:49:58;;;;;;;;;;;20.10;58.70;;;;;;5053427;28;19959;-70
2022/12/12 11:52:30;;;;;;;;;;;20.10;58.90;;;;;;5056915;28;20353;-71
2022/12/12 11:54:58;;;;;;;;;;;20.10;58.60;;;;;;5055845;28;19911;-71
2022/12/12 11:57:39;;;;;;;;;;;20.00;58.20;;;;;;5055059;28;20527;-71
2022/12/12 12:00:06;;;;;;;;;;;20.00;58.40;;;;;;5055002;28;20280;-73
2022/12/12 12:02:44;;;;;;;;;;;19.90;59.00;;;;;;5056568;28;19997;-69
2022/12/12 12:05:29;;;;;;;;;;;20.10;58.60;;;;;;5055633;28;20293;-71
2022/12/12 12:08:09;;;;;;;;;;;20.00;58.80;;;;;;5055470;28;19908;-71
2022/12/12 12:10:36;;;;;;;;;;;20.00;58.60;;;;;;5056505;28;19909;-70
2022/12/12 12:13:19;;;;;;;;;;;19.90;59.60;;;;;;5056033;28;19992;-69
2022/12/12 12:15:58;;;;;;;;;;;19.90;58.80;;;;;;5054901;28;19912;-70
2022/12/12 12:18:43;;;;;;;;;;;19.80;58.80;;;;;;5070731;28;19909;-70
2022/12/12 12:21:28;;;;;;;;;;;19.80;58.90;;;;;;5055640;28;19912;-72
2022/12/12 12:24:13;;;;;;;;;;;19.80;59.70;;;;;;5055321;28;19920;-71
2022/12/12 12:26:51;;;;;;;;;;;19.80;59.30;;;;;;5055243;28;20373;-69
2022/12/12 12:29:26;;;;;;;;;;;19.70;59.40;;;;;;5054494;28;19912;-69
2022/12/12 12:31:53;;;;;;;;;;;19.70;60.00;;;;;;5055253;28;19962;-71
2022/12/12 12:34:41;;;;;;;;;;;19.60;59.80;;;;;;5054345;28;19909;-68
2022/12/12 12:37:14;;;;;;;;;;;19.60;59.30;;;;;;5055103;28;20452;-71
2022/12/12 12:39:59;;;;;;;;;;;19.50;60.50;;;;;;5055285;28;20003;-70
2022/12/12 12:42:37;;;;;;;;;;;19.50;59.90;;;;;;5053400;28;19915;-71
2022/12/12 12:45:13;;;;;;;;;;;19.40;61.40;;;;;;5054069;28;19970;-70
2022/12/12 12:48:02;;;;;;;;;;;19.40;60.00;;;;;;5055241;28;19919;-69
2022/12/12 12:50:32;;;;;;;;;;;19.40;60.50;;;;;;5051865;28;19909;-68
2022/12/12 12:52:58;;;;;;;;;;;19.30;60.90;;;;;;5055518;28;19944;-70
2022/12/12 12:55:31;;;;;;;;;;;19.30;62.10;;;;;;5053862;28;19919;-69
2022/12/12 12:57:59;;;;;;;;;;;19.30;61.80;;;;;;5044663;28;19908;-70
2022/12/12 13:00:28;;;;;;;;;;;19.30;61.40;;;;;;5033603;28;19956;-69
2022/12/12 13:03:04;;;;;;;;;;;19.30;61.90;;;;;;5036160;28;19916;-69
2022/12/12 13:05:31;;;;;;;;;;;19.20;62.30;;;;;;5034761;28;20007;-70
2022/12/12 13:08:03;;;;;;;;;;;19.20;61.60;;;;;;5036700;28;19996;-69
2022/12/12 13:10:31;;;;;;;;;;;19.10;62.30;;;;;;5034228;28;19913;-70
2022/12/12 13:13:21;;;;;;;;;;;19.10;61.50;;;;;;5036333;28;19909;-68
2022/12/12 13:15:56;;;;;;;;;;;19.10;61.80;;;;;;5028243;28;20371;-69
2022/12/12 13:18:24;;;;;;;;;;;19.10;61.20;;;;;;5032434;28;20382;-70
2022/12/12 13:20:56;;;;;;;;;;;19.10;62.40;;;;;;5035610;28;20054;-69
2022/12/12 13:23:32;;;;;;;;;;;19.00;61.60;;;;;;5032830;28;20034;-69
2022/12/12 13:26:04;;;;;;;;;;;19.00;62.10;;;;;;5035850;28;20015;-69
2022/12/12 13:28:38;;;;;;;;;;;19.00;62.70;;;;;;5033499;28;19917;-69
2022/12/12 13:31:23;;;;;;;;;;;19.00;62.20;;;;;;5035270;28;19955;-70
2022/12/12 13:33:51;;;;;;;;;;;19.00;62.00;;;;;;5036024;28;19913;-69
2022/12/12 13:36:23;;;;;;;;;;;18.90;63.50;;;;;;5033567;28;20333;-71
2022/12/12 13:38:54;;;;;;;;;;;18.90;62.10;;;;;;5034289;28;19916;-69
2022/12/12 13:41:20;;;;;;;;;;;18.80;61.80;;;;;;5033999;28;19908;-69
2022/12/12 13:43:48;;;;;;;;;;;18.80;63.00;;;;;;5033898;28;20043;-69
2022/12/12 13:46:22;;;;;;;;;;;18.80;63.30;;;;;;5033975;28;19923;-69
2022/12/12 13:48:51;;;;;;;;;;;18.80;62.80;;;;;;5033695;28;19942;-69
2022/12/12 13:51:29;;;;;;;;;;;18.80;62.40;;;;;;5033901;28;19909;-69
2022/12/12 13:54:08;;;;;;;;;;;18.80;63.30;;;;;;5036589;28;20607;-70
2022/12/12 13:56:58;;;;;;;;;;;18.80;64.40;;;;;;5053306;28;19959;-69
2022/12/12 13:59:24;;;;;;;;;;;18.70;62.90;;;;;;5043444;28;19995;-71
2022/12/12 14:01:54;;;;;;;;;;;18.60;62.60;;;;;;5053773;28;19909;-69
2022/12/12 14:04:23;;;;;;;;;;;18.70;62.10;;;;;;5054250;28;19917;-69
2022/12/12 14:07:01;;;;;;;;;;;18.70;64.40;;;;;;5041989;28;19909;-70
2022/12/12 14:09:32;;;;;;;;;;;18.70;63.20;;;;;;5033770;28;19960;-69
2022/12/12 14:12:06;;;;;;;;;;;18.60;62.90;;;;;;5033214;28;19915;-68
2022/12/12 14:14:35;;;;;;;;;;;18.50;63.10;;;;;;5033233;28;20369;-69
2022/12/12 14:17:02;;;;;;;;;;;18.50;64.80;;;;;;5033400;28;19917;-70
2022/12/12 14:19:33;;;;;;;;;;;18.50;63.30;;;;;;5034127;28;20353;-71
2022/12/12 14:22:00;;;;;;;;;;;18.40;64.00;;;;;;5033548;28;20275;-69
2022/12/12 14:24:33;;;;;;;;;;;18.40;64.10;;;;;;5041446;28;19973;-68
2022/12/12 14:27:01;;;;;;;;;;;18.30;64.30;;;;;;5053249;28;19908;-70
2022/12/12 14:29:28;;;;;;;;;;;18.30;65.40;;;;;;5054718;28;19908;-68
2022/12/12 14:32:10;;;;;;;;;;;18.30;64.50;;;;;;5052794;28;20436;-71
2022/12/12 14:34:37;;;;;;;;;;;18.30;64.60;;;;;;5053559;28;20429;-70
2022/12/12 14:37:14;;;;;;;;;;;18.30;65.60;;;;;;5053014;28;19915;-70
2022/12/12 14:39:43;;;;;;;;;;;18.30;66.00;;;;;;5033896;28;20015;-71
2022/12/12 14:42:18;;;;;;;;;;;18.20;64.70;;;;;;5039390;28;19912;-69
2022/12/12 14:44:45;;;;;;;;;;;18.20;66.40;;;;;;5053394;28;19975;-70
2022/12/12 14:47:15;;;;;;;;;;;18.20;65.50;;;;;;5053776;28;19962;-69